createdAt,value
2017-09-14T00:00:57.311Z,19.39
2017-09-14T00:03:23.744Z,19.38
2017-09-14T00:05:50.179Z,19.33
2017-09-14T00:08:16.612Z,19.09
2017-09-14T00:10:43.004Z,18.89
2017-09-14T00:13:10.202Z,18.83
2017-09-14T00:15:36.590Z,18.78
2017-09-14T00:18:03.019Z,18.80
2017-09-14T00:20:29.511Z,18.75
2017-09-14T00:22:55.939Z,18.73
2017-09-14T00:25:22.374Z,18.79
2017-09-14T00:27:48.759Z,18.77
2017-09-14T00:30:16.063Z,18.74
2017-09-14T00:32:42.451Z,18.76
2017-09-14T00:35:08.922Z,18.86
2017-09-14T00:37:35.368Z,18.78
2017-09-14T00:40:01.804Z,18.88
2017-09-14T00:42:28.237Z,18.86
2017-09-14T00:44:54.673Z,18.83
2017-09-14T00:47:21.824Z,18.89
2017-09-14T00:49:48.262Z,18.62
2017-09-14T00:52:14.694Z,18.66
2017-09-14T00:54:41.129Z,18.61
2017-09-14T00:57:07.564Z,18.61
2017-09-14T00:59:34.101Z,18.71
2017-09-14T01:02:00.537Z,18.73
2017-09-14T01:04:27.711Z,18.69
2017-09-14T01:06:54.125Z,18.52
2017-09-14T01:09:20.558Z,18.40
2017-09-14T01:11:46.992Z,18.33
2017-09-14T01:14:13.376Z,18.39
2017-09-14T01:16:39.847Z,18.47
2017-09-14T01:19:06.247Z,18.43
2017-09-14T01:21:33.434Z,18.61
2017-09-14T01:23:59.884Z,18.52
2017-09-14T01:26:26.267Z,18.40
2017-09-14T01:28:52.754Z,18.20
2017-09-14T01:31:19.192Z,18.22
2017-09-14T01:33:45.623Z,18.26
2017-09-14T01:36:12.008Z,18.16
2017-09-14T01:38:39.210Z,18.11
2017-09-14T01:41:05.645Z,18.17
2017-09-14T01:43:32.080Z,18.29
2017-09-14T01:45:58.515Z,18.33
2017-09-14T01:48:24.950Z,18.25
2017-09-14T01:50:51.387Z,18.09
2017-09-14T01:53:17.820Z,18.20
2017-09-14T01:55:45.074Z,18.24
2017-09-14T01:58:11.494Z,18.26
2017-09-14T02:00:37.944Z,18.23
2017-09-14T02:03:04.379Z,18.24
2017-09-14T02:05:30.836Z,18.24
2017-09-14T02:07:57.249Z,18.09
2017-09-14T02:10:23.637Z,18.04
2017-09-14T02:12:50.835Z,18.12
2017-09-14T02:15:17.269Z,18.14
2017-09-14T02:17:43.729Z,18.05
2017-09-14T02:20:10.094Z,17.96
2017-09-14T02:22:36.575Z,17.97
2017-09-14T02:25:03.010Z,18.04
2017-09-14T02:27:29.395Z,18.05
2017-09-14T02:32:22.929Z,17.70
2017-09-14T02:34:49.363Z,17.48
2017-09-14T02:37:15.902Z,17.52
2017-09-14T02:39:42.336Z,17.68
2017-09-14T02:42:08.771Z,17.79
2017-09-14T02:44:35.206Z,17.76
2017-09-14T02:47:02.367Z,17.53
2017-09-14T02:49:28.844Z,17.76
2017-09-14T02:51:55.278Z,17.74
2017-09-14T02:54:21.752Z,17.72
2017-09-14T02:56:48.201Z,17.79
2017-09-14T02:59:14.655Z,17.84
2017-09-14T03:01:41.150Z,17.88
2017-09-14T03:04:08.268Z,17.88
2017-09-14T03:06:34.757Z,17.92
2017-09-14T03:09:01.193Z,17.81
2017-09-14T03:11:27.629Z,17.76
2017-09-14T03:13:54.063Z,17.82
2017-09-14T03:16:20.447Z,17.84
2017-09-14T03:18:46.935Z,17.84
2017-09-14T03:21:14.086Z,17.86
2017-09-14T03:23:40.469Z,17.84
2017-09-14T03:26:06.953Z,17.77
2017-09-14T03:28:33.492Z,17.60
2017-09-14T03:30:59.927Z,17.55
2017-09-14T03:33:26.361Z,17.66
2017-09-14T03:35:52.749Z,17.57
2017-09-14T03:38:19.914Z,17.33
2017-09-14T03:40:46.356Z,17.26
2017-09-14T03:43:12.820Z,17.20
2017-09-14T03:45:39.271Z,17.06
2017-09-14T03:48:05.688Z,17.00
2017-09-14T03:50:32.121Z,16.97
2017-09-14T03:52:58.558Z,16.99
2017-09-14T03:55:25.727Z,17.11
2017-09-14T03:57:52.246Z,17.21
2017-09-14T04:00:18.682Z,17.32
2017-09-14T04:02:45.116Z,17.34
2017-09-14T04:05:11.551Z,17.27
2017-09-14T04:07:37.986Z,17.09
2017-09-14T04:10:04.371Z,16.95
2017-09-14T04:12:31.675Z,16.99
2017-09-14T04:14:58.110Z,17.16
2017-09-14T04:17:24.647Z,17.08
2017-09-14T04:19:51.084Z,17.35
2017-09-14T04:22:17.517Z,17.48
2017-09-14T04:24:43.952Z,17.57
2017-09-14T04:27:10.386Z,17.60
2017-09-14T04:29:37.643Z,17.62
2017-09-14T04:32:04.077Z,17.58
2017-09-14T04:34:30.463Z,17.65
2017-09-14T04:36:57.050Z,17.68
2017-09-14T04:39:23.482Z,17.67
2017-09-14T04:41:49.920Z,17.75
2017-09-14T04:44:16.354Z,17.76
2017-09-14T04:46:43.610Z,17.82
2017-09-14T04:49:10.044Z,17.88
2017-09-14T04:51:36.423Z,17.89
2017-09-14T04:54:02.808Z,18.03
2017-09-14T04:56:29.243Z,18.16
2017-09-14T04:58:55.681Z,18.25
2017-09-14T05:01:22.114Z,18.37
2017-09-14T05:03:49.352Z,18.41
2017-09-14T05:06:15.805Z,18.61
2017-09-14T05:08:42.236Z,18.69
2017-09-14T05:11:08.654Z,18.84
2017-09-14T05:13:35.100Z,18.97
2017-09-14T05:16:01.548Z,19.07
2017-09-14T05:18:27.977Z,19.17
2017-09-14T05:20:55.129Z,19.23
2017-09-14T05:23:21.564Z,19.31
2017-09-14T05:25:47.999Z,19.41
2017-09-14T05:28:14.377Z,19.49
2017-09-14T05:30:40.873Z,19.61
2017-09-14T05:33:07.252Z,19.72
2017-09-14T05:35:33.730Z,19.83
2017-09-14T05:38:00.891Z,19.94
2017-09-14T05:40:27.327Z,20.05
2017-09-14T05:42:53.760Z,20.14
2017-09-14T05:45:20.298Z,20.20
2017-09-14T05:47:46.732Z,20.20
2017-09-14T05:50:13.167Z,20.21
2017-09-14T05:52:39.601Z,20.25
2017-09-14T05:55:05.982Z,20.36
2017-09-14T05:57:32.676Z,20.47
2017-09-14T05:59:59.035Z,20.62
2017-09-14T06:02:25.444Z,20.70
2017-09-14T06:04:52.070Z,20.62
2017-09-14T06:07:18.620Z,20.83
2017-09-14T06:09:45.077Z,20.95
2017-09-14T06:12:11.592Z,21.07
2017-09-14T06:14:38.048Z,21.11
2017-09-14T06:17:04.411Z,21.15
2017-09-14T06:19:30.973Z,21.28
2017-09-14T06:21:57.415Z,21.30
2017-09-14T06:24:24.284Z,21.34
2017-09-14T06:26:50.715Z,21.45
2017-09-14T06:29:17.150Z,21.38
2017-09-14T06:31:43.586Z,21.36
2017-09-14T06:34:10.019Z,21.34
2017-09-14T06:36:36.965Z,21.65
2017-09-14T06:39:03.350Z,21.90
2017-09-14T06:41:30.246Z,22.02
2017-09-14T06:43:56.681Z,22.22
2017-09-14T06:46:23.166Z,22.30
2017-09-14T06:48:49.635Z,22.43
2017-09-14T06:51:16.304Z,22.60
2017-09-14T06:53:42.726Z,22.70
2017-09-14T06:56:09.166Z,22.79
2017-09-14T06:58:36.443Z,22.89
2017-09-14T07:01:02.955Z,22.91
2017-09-14T07:03:29.389Z,23.13
2017-09-14T07:05:56.028Z,23.29
2017-09-14T07:08:22.527Z,23.39
2017-09-14T07:13:30.213Z,23.56
2017-09-14T07:26:02.648Z,24.33
2017-09-14T07:28:29.086Z,24.44
2017-09-14T07:30:55.520Z,24.41
2017-09-14T07:33:21.826Z,24.60
2017-09-14T07:35:48.259Z,24.55
2017-09-14T07:38:14.823Z,24.67
2017-09-14T07:40:41.359Z,24.86
2017-09-14T07:43:07.795Z,24.99
2017-09-14T07:45:34.186Z,25.13
2017-09-14T07:48:00.670Z,25.18
2017-09-14T07:50:27.121Z,25.26
2017-09-14T07:52:53.558Z,25.20
2017-09-14T07:55:20.072Z,25.30
2017-09-14T07:57:46.612Z,25.50
2017-09-14T08:00:12.944Z,25.58
2017-09-14T08:02:39.376Z,25.70
2017-09-14T08:05:06.054Z,25.91
2017-09-14T08:07:32.399Z,25.99
2017-09-14T08:09:58.889Z,26.06
2017-09-14T08:12:25.941Z,26.12
2017-09-14T08:14:52.372Z,26.23
2017-09-14T08:17:18.805Z,26.39
2017-09-14T08:19:45.240Z,26.48
2017-09-14T08:22:11.614Z,26.51
2017-09-14T08:24:38.099Z,26.51
2017-09-14T08:27:04.753Z,26.47
2017-09-14T08:29:31.185Z,26.49
2017-09-14T08:31:57.560Z,26.55
2017-09-14T08:34:24.054Z,26.73
2017-09-14T08:36:50.490Z,26.83
2017-09-14T08:39:16.924Z,26.86
2017-09-14T08:41:43.360Z,26.93
2017-09-14T08:44:09.793Z,27.07
2017-09-14T08:46:36.230Z,27.14
2017-09-14T08:49:02.869Z,27.28
2017-09-14T08:51:29.239Z,27.47
2017-09-14T08:53:56.864Z,27.55
2017-09-14T08:56:23.403Z,27.62
2017-09-14T08:58:49.939Z,27.62
2017-09-14T09:01:16.375Z,27.69
2017-09-14T09:06:14.985Z,27.75
2017-09-14T09:08:41.536Z,27.83
2017-09-14T09:11:08.074Z,27.98
2017-09-14T09:13:34.510Z,28.07
2017-09-14T09:16:01.047Z,28.13
2017-09-14T09:18:27.426Z,28.27
2017-09-14T09:20:53.914Z,28.29
2017-09-14T09:23:20.348Z,28.45
2017-09-14T09:25:46.897Z,28.47
2017-09-14T09:28:13.628Z,28.52
2017-09-14T09:30:40.083Z,28.54
2017-09-14T09:33:06.909Z,28.57
2017-09-14T09:35:33.751Z,28.61
2017-09-14T09:38:00.195Z,28.64
2017-09-14T09:40:26.934Z,28.73
2017-09-14T09:42:53.574Z,28.72
2017-09-14T09:45:20.105Z,28.78
2017-09-14T09:47:46.490Z,28.92
2017-09-14T09:50:12.955Z,28.76
2017-09-14T09:52:39.410Z,28.75
2017-09-14T09:55:05.845Z,28.64
2017-09-14T09:57:32.279Z,28.67
2017-09-14T09:59:58.631Z,28.70
2017-09-14T10:02:25.048Z,28.61
2017-09-14T10:04:51.482Z,28.75
2017-09-14T10:07:17.917Z,28.95
2017-09-14T10:09:44.351Z,29.25
2017-09-14T10:12:10.787Z,29.05
2017-09-14T10:14:37.426Z,28.96
2017-09-14T10:17:03.812Z,28.85
2017-09-14T10:19:30.297Z,28.76
2017-09-14T10:21:56.733Z,29.02
2017-09-14T10:24:23.167Z,28.89
2017-09-14T10:26:49.706Z,28.88
2017-09-14T10:29:16.342Z,28.89
2017-09-14T10:31:42.925Z,28.93
2017-09-14T10:34:09.279Z,28.97
2017-09-14T10:36:35.646Z,29.05
2017-09-14T10:39:02.389Z,29.25
2017-09-14T10:41:28.928Z,29.42
2017-09-14T10:43:55.367Z,29.56
2017-09-14T10:46:22.308Z,29.49
2017-09-14T10:48:48.744Z,29.43
2017-09-14T10:51:15.179Z,29.61
2017-09-14T10:53:41.614Z,29.70
2017-09-14T10:56:08.150Z,29.73
2017-09-14T10:58:34.530Z,29.81
2017-09-14T11:01:01.118Z,29.96
2017-09-14T11:03:27.581Z,30.05
2017-09-14T11:05:54.299Z,30.08
2017-09-14T11:08:20.882Z,30.07
2017-09-14T11:10:48.229Z,30.40
2017-09-14T11:15:46.670Z,30.89
2017-09-14T11:18:13.144Z,31.35
2017-09-14T11:20:39.677Z,31.82
2017-09-14T11:23:06.590Z,32.44
2017-09-14T11:25:33.331Z,32.94
2017-09-14T11:27:59.755Z,33.34
2017-09-14T11:30:26.225Z,33.87
2017-09-14T11:32:53.762Z,34.41
2017-09-14T11:35:20.242Z,35.10
2017-09-14T11:37:46.840Z,35.48
2017-09-14T11:40:13.477Z,36.02
2017-09-14T11:42:39.924Z,36.52
2017-09-14T11:45:06.450Z,36.90
2017-09-14T11:47:32.986Z,37.16
2017-09-14T11:49:59.525Z,37.80
2017-09-14T11:52:26.070Z,38.12
2017-09-14T11:54:52.702Z,37.92
2017-09-14T11:57:19.240Z,37.78
2017-09-14T11:59:45.879Z,37.88
2017-09-14T12:02:12.415Z,38.49
2017-09-14T12:04:38.748Z,38.85
2017-09-14T12:07:05.182Z,38.98
2017-09-14T12:09:32.152Z,39.21
2017-09-14T12:11:58.618Z,39.86
2017-09-14T12:14:25.036Z,40.43
2017-09-14T12:16:51.536Z,40.65
2017-09-14T12:19:17.979Z,41.18
2017-09-14T12:21:44.453Z,41.50
2017-09-14T12:24:11.046Z,40.99
2017-09-14T12:26:37.434Z,40.78
2017-09-14T12:29:04.021Z,41.38
2017-09-14T12:31:30.763Z,41.42
2017-09-14T12:33:57.646Z,41.28
2017-09-14T12:36:24.039Z,42.00
2017-09-14T12:38:50.487Z,42.62
2017-09-14T12:41:17.014Z,42.87
2017-09-14T12:43:43.864Z,42.91
2017-09-14T12:46:10.600Z,43.15
2017-09-14T12:48:38.546Z,43.78
2017-09-14T12:51:05.075Z,44.18
2017-09-14T12:53:31.478Z,43.80
2017-09-14T12:55:58.489Z,42.68
2017-09-14T12:58:25.131Z,42.23
2017-09-14T13:00:51.608Z,42.21
2017-09-14T13:03:18.320Z,41.81
2017-09-14T13:05:45.153Z,41.81
2017-09-14T13:08:13.231Z,42.19
2017-09-14T13:10:39.697Z,42.54
2017-09-14T13:13:06.027Z,42.85
2017-09-14T13:15:32.608Z,42.87
2017-09-14T13:17:59.607Z,43.29
2017-09-14T13:20:26.013Z,43.76
2017-09-14T13:22:52.672Z,44.05
2017-09-14T13:25:19.142Z,44.27
2017-09-14T13:27:45.561Z,43.85
2017-09-14T13:42:49.621Z,43.89
2017-09-14T13:55:21.922Z,42.50
2017-09-14T13:57:48.357Z,43.12
2017-09-14T14:00:14.816Z,43.10
2017-09-14T14:02:41.943Z,42.90
2017-09-14T14:05:08.322Z,43.02
2017-09-14T14:07:35.634Z,43.47
2017-09-14T14:10:02.171Z,43.47
2017-09-14T14:12:28.605Z,43.41
2017-09-14T14:14:55.040Z,43.15
2017-09-14T14:17:21.393Z,42.65
2017-09-14T14:19:47.806Z,41.47
2017-09-14T14:22:14.246Z,40.29
2017-09-14T14:24:40.676Z,39.16
2017-09-14T14:29:39.998Z,37.18
2017-09-14T14:32:06.536Z,36.60
2017-09-14T14:34:33.195Z,35.68
2017-09-14T14:36:59.588Z,34.89
2017-09-14T14:39:26.091Z,34.54
2017-09-14T14:41:52.710Z,33.97
2017-09-14T14:44:19.292Z,33.55
2017-09-14T14:46:45.657Z,33.33
2017-09-14T14:49:12.102Z,33.15
2017-09-14T14:51:38.594Z,32.96
2017-09-14T14:54:05.385Z,32.70
2017-09-14T14:56:32.386Z,32.64
2017-09-14T14:58:58.958Z,32.45
2017-09-14T15:01:25.394Z,32.54
2017-09-14T15:03:51.931Z,32.33
2017-09-14T15:06:18.468Z,32.10
2017-09-14T15:08:44.902Z,32.08
2017-09-14T15:11:11.294Z,32.05
2017-09-14T15:13:37.772Z,32.01
2017-09-14T15:16:04.150Z,31.95
2017-09-14T15:18:30.642Z,31.97
2017-09-14T15:20:57.077Z,31.98
2017-09-14T15:23:23.615Z,31.93
2017-09-14T15:25:50.152Z,31.93
2017-09-14T15:28:17.303Z,31.75
2017-09-14T15:30:43.785Z,31.56
2017-09-14T15:33:10.256Z,31.54
2017-09-14T15:35:36.758Z,31.22
2017-09-14T15:38:03.241Z,31.23
2017-09-14T15:40:29.662Z,31.01
2017-09-14T15:42:56.117Z,30.92
2017-09-14T15:45:23.214Z,30.76
2017-09-14T15:47:49.602Z,30.63
2017-09-14T15:50:16.139Z,30.46
2017-09-14T15:52:42.678Z,30.42
2017-09-14T15:55:09.111Z,30.29
2017-09-14T15:57:35.548Z,30.16
2017-09-14T16:00:01.981Z,30.16
2017-09-14T16:02:29.236Z,30.08
2017-09-14T16:04:55.670Z,29.98
2017-09-14T16:07:22.106Z,29.93
2017-09-14T16:09:48.486Z,29.82
2017-09-14T16:12:14.923Z,29.66
2017-09-14T16:14:41.391Z,29.56
2017-09-14T16:17:07.844Z,29.49
2017-09-14T16:19:34.996Z,29.33
2017-09-14T16:22:01.436Z,29.18
2017-09-14T16:24:27.968Z,29.06
2017-09-14T16:26:54.402Z,29.12
2017-09-14T16:29:20.791Z,28.93
2017-09-14T16:31:47.134Z,28.77
2017-09-14T16:34:13.608Z,28.67
2017-09-14T16:36:40.758Z,28.59
2017-09-14T16:39:07.295Z,28.50
2017-09-14T16:41:33.711Z,28.46
2017-09-14T16:44:00.143Z,28.43
2017-09-14T16:46:26.601Z,28.41
2017-09-14T16:48:53.036Z,28.41
2017-09-14T16:51:19.414Z,28.35
2017-09-14T16:53:46.621Z,28.33
2017-09-14T16:56:13.055Z,28.28
2017-09-14T16:58:39.490Z,28.21
2017-09-14T17:01:05.928Z,28.15
2017-09-14T17:03:32.566Z,28.07
2017-09-14T17:05:58.999Z,27.88
2017-09-14T17:08:25.434Z,27.90
2017-09-14T17:10:52.484Z,27.79
2017-09-14T17:13:19.022Z,27.73
2017-09-14T17:15:45.475Z,27.69
2017-09-14T17:18:11.892Z,27.59
2017-09-14T17:20:38.327Z,27.50
2017-09-14T17:23:04.816Z,27.43
2017-09-14T17:25:31.196Z,27.33
2017-09-14T17:27:58.451Z,27.15
2017-09-14T17:30:24.886Z,26.98
2017-09-14T17:32:51.421Z,26.83
2017-09-14T17:35:17.861Z,26.75
2017-09-14T17:37:44.293Z,26.79
2017-09-14T17:40:10.790Z,26.79
2017-09-14T17:42:37.265Z,26.79
2017-09-14T17:45:04.416Z,26.72
2017-09-14T17:47:30.787Z,26.62
2017-09-14T17:49:57.145Z,26.54
2017-09-14T17:52:23.572Z,26.51
2017-09-14T17:54:50.053Z,26.48
2017-09-14T17:57:16.488Z,26.46
2017-09-14T17:59:42.923Z,26.39
2017-09-14T18:02:10.094Z,26.26
2017-09-14T18:04:36.598Z,26.04
2017-09-14T18:07:03.048Z,26.01
2017-09-14T18:09:29.404Z,26.06
2017-09-14T18:11:55.815Z,25.94
2017-09-14T18:14:22.398Z,25.85
2017-09-14T18:16:48.787Z,25.80
2017-09-14T18:19:15.928Z,25.76
2017-09-14T18:21:42.374Z,25.68
2017-09-14T18:24:08.911Z,25.57
2017-09-14T18:26:35.346Z,25.52
2017-09-14T18:29:01.782Z,25.50
2017-09-14T18:31:28.218Z,25.48
2017-09-14T18:33:54.709Z,25.40
2017-09-14T18:36:21.774Z,25.32
2017-09-14T18:38:48.221Z,25.31
2017-09-14T18:41:14.674Z,25.28
2017-09-14T18:43:41.209Z,25.11
2017-09-14T18:46:07.644Z,24.98
2017-09-14T18:48:34.079Z,24.86
2017-09-14T18:51:00.517Z,24.80
2017-09-14T18:53:27.666Z,24.80
2017-09-14T18:55:54.051Z,24.73
2017-09-14T18:58:20.536Z,24.73
2017-09-14T19:00:46.971Z,24.70
2017-09-14T19:03:13.407Z,24.71
2017-09-14T19:05:39.840Z,24.68
2017-09-14T19:08:06.262Z,24.68
2017-09-14T19:10:33.429Z,24.67
2017-09-14T19:12:59.966Z,24.66
2017-09-14T19:15:26.341Z,24.68
2017-09-14T19:17:52.787Z,24.67
2017-09-14T19:20:19.166Z,24.57
2017-09-14T19:22:45.704Z,24.45
2017-09-14T19:25:12.142Z,24.36
2017-09-14T19:27:39.380Z,24.26
2017-09-14T19:30:05.830Z,24.23
2017-09-14T19:32:32.264Z,24.27
2017-09-14T19:34:58.651Z,24.28
2017-09-14T19:37:25.099Z,24.24
2017-09-14T19:39:51.465Z,24.10
2017-09-14T19:42:17.886Z,23.97
2017-09-14T19:44:45.260Z,23.92
2017-09-14T19:47:11.691Z,23.91
2017-09-14T19:49:38.125Z,23.88
2017-09-14T19:52:04.561Z,23.73
2017-09-14T19:54:31.051Z,23.66
2017-09-14T19:56:57.449Z,23.49
2017-09-14T19:59:23.866Z,23.40
2017-09-14T20:01:51.121Z,23.45
2017-09-14T20:04:17.648Z,23.46
2017-09-14T20:06:44.048Z,23.35
2017-09-14T20:09:10.526Z,23.17
2017-09-14T20:11:36.961Z,23.35
2017-09-14T20:14:03.397Z,23.31
2017-09-14T20:16:29.857Z,23.21
2017-09-14T20:18:56.983Z,23.12
2017-09-14T20:21:23.420Z,23.01
2017-09-14T20:23:49.921Z,22.90
2017-09-14T20:26:16.393Z,22.84
2017-09-14T20:28:42.775Z,22.76
2017-09-14T20:31:09.157Z,22.77
2017-09-14T20:33:35.696Z,22.83
2017-09-14T20:36:02.799Z,22.87
2017-09-14T20:38:29.282Z,22.76
2017-09-14T20:40:55.716Z,22.66
2017-09-14T20:43:22.253Z,22.63
2017-09-14T20:45:48.700Z,22.68
2017-09-14T20:48:15.226Z,22.73
2017-09-14T20:50:41.660Z,22.83
2017-09-14T20:53:08.916Z,22.87
2017-09-14T20:55:35.453Z,22.83
2017-09-14T20:58:02.031Z,22.81
2017-09-14T21:00:28.527Z,22.80
2017-09-14T21:02:55.047Z,22.85
2017-09-14T21:05:21.499Z,22.91
2017-09-14T21:07:47.934Z,22.92
2017-09-14T21:10:15.025Z,22.94
2017-09-14T21:12:41.521Z,22.99
2017-09-14T21:15:07.956Z,23.05
2017-09-14T21:17:34.409Z,23.17
2017-09-14T21:20:00.928Z,23.25
2017-09-14T21:22:27.362Z,23.33
2017-09-14T21:24:53.751Z,23.37
2017-09-14T21:27:20.949Z,23.41
2017-09-14T21:29:47.384Z,23.45
2017-09-14T21:32:13.820Z,23.51
2017-09-14T21:34:40.354Z,23.55
2017-09-14T21:37:06.747Z,23.62
2017-09-14T21:39:33.213Z,23.51
2017-09-14T21:41:59.657Z,23.71
2017-09-14T21:44:26.765Z,23.81
2017-09-14T21:46:53.242Z,23.89
2017-09-14T21:49:19.634Z,23.94
2017-09-14T21:51:46.102Z,23.99
2017-09-14T21:54:12.656Z,24.09
2017-09-14T21:56:39.038Z,24.12
2017-09-14T21:59:05.422Z,24.16
2017-09-14T22:01:32.727Z,24.15
2017-09-14T22:03:59.214Z,24.12
2017-09-14T22:06:25.633Z,24.11
2017-09-14T22:08:52.076Z,24.15
2017-09-14T22:11:18.522Z,24.22
2017-09-14T22:13:45.061Z,24.18
2017-09-14T22:16:11.495Z,24.17
2017-09-14T22:18:38.746Z,24.17
2017-09-14T22:21:05.179Z,24.20
2017-09-14T22:23:31.717Z,24.19
2017-09-14T22:25:58.152Z,24.13
2017-09-14T22:28:24.690Z,24.17
2017-09-14T22:30:51.123Z,24.19
2017-09-14T22:33:18.686Z,24.16
2017-09-14T22:35:45.223Z,24.13
2017-09-14T22:38:11.658Z,24.17
2017-09-14T22:40:38.092Z,24.13
2017-09-14T22:43:04.631Z,24.10
2017-09-14T22:45:31.070Z,24.11
2017-09-14T22:47:57.500Z,24.19
2017-09-14T22:50:23.935Z,24.23
2017-09-14T22:52:51.188Z,24.27
2017-09-14T22:55:17.625Z,24.28
2017-09-14T22:57:44.006Z,24.13
2017-09-14T23:00:10.495Z,24.28
2017-09-14T23:02:37.030Z,24.28
2017-09-14T23:05:03.461Z,24.30
2017-09-14T23:07:29.870Z,24.25
2017-09-14T23:09:57.053Z,24.20
2017-09-14T23:12:23.487Z,24.18
2017-09-14T23:14:49.923Z,24.18
2017-09-14T23:17:16.301Z,24.16
2017-09-14T23:19:42.738Z,24.13
2017-09-14T23:22:09.227Z,24.13
2017-09-14T23:24:35.765Z,24.13
2017-09-14T23:27:02.936Z,24.15
2017-09-14T23:29:29.453Z,24.11
2017-09-14T23:31:55.887Z,24.08
2017-09-14T23:34:22.423Z,23.99
2017-09-14T23:36:48.816Z,23.95
2017-09-14T23:39:15.284Z,23.90
2017-09-14T23:41:41.730Z,23.84
2017-09-14T23:44:08.984Z,23.77
2017-09-14T23:46:35.418Z,23.71
2017-09-14T23:49:01.855Z,23.72
2017-09-14T23:51:28.310Z,23.63
2017-09-14T23:53:54.775Z,23.53
2017-09-14T23:56:21.232Z,23.51
2017-09-14T23:58:47.643Z,23.44
